»·PEaware :: SWA1105 KABQ-KSLC

SWA1105 :: KABQ-KSLC

FLIGHT INFORMATION

Flight Status: Arrived
Operator:
Southwest Airlines
More flights by this operator :: More flights under this callsign
Pilot: Christian H. (16685)
Aircraft: BOEING 737-900
(B739)
More flights by this aircraft type
Origin: KABQ Albuquerque Intl Sunport
United States
Destination: KSLC Salt Lake City Intl
United States
More flights between these airports :: More routes between these airports
Route: LARGO3 RSK J15 JNC J12 HELPR LEEHY5
File this flight plan on PilotEdge
Remarks:
Altitude:
(Current/Filed)
36,000ft
Speed:
(Current/Filed)
455kts
Departed: 11-May-18 03:37 PM
Arrived: 11-May-18 05:05 PM
Distance/Time
Traveled:
428nm/1:28
Distance/Time
To Go:
Arrived

Flight Plot

Page will automatically refresh every two minutes.

Flight plan parsing failed; only flown route is shown


Map Options




Map Legend


Flown Route
Filed Route
Departure Airport
Arrival Airport
Navaid (VOR, NDB)
Fix

Horizontal Profiles

Position Reports

Time Latitude Longitude Heading Altitude Ground
Speed
11-May-18 15:04 35.047877 -106.615224 180 5322ft 0kts
11-May-18 15:05 35.047877 -106.615224 180 5322ft 0kts
11-May-18 15:06 35.047877 -106.615224 180 5322ft 0kts
11-May-18 15:07 35.047877 -106.615224 180 5322ft 0kts
11-May-18 15:08 35.047877 -106.615224 180 5322ft 0kts
11-May-18 15:09 35.047877 -106.615224 180 5322ft 0kts
11-May-18 15:10 35.047877 -106.615224 180 5322ft 0kts
11-May-18 15:11 35.047877 -106.615224 180 5322ft 0kts
11-May-18 15:12 35.047877 -106.615224 180 5322ft 0kts
11-May-18 15:13 35.047877 -106.615224 180 5322ft 0kts
11-May-18 15:14 35.047877 -106.615224 180 5322ft 0kts
11-May-18 15:15 35.047877 -106.615224 180 5322ft 0kts
11-May-18 15:16 35.047877 -106.615224 180 5322ft 0kts
11-May-18 15:17 35.047877 -106.615224 180 5322ft 0kts
11-May-18 15:18 35.047877 -106.615224 180 5322ft 0kts
11-May-18 15:19 35.047877 -106.615224 180 5322ft 0kts
11-May-18 15:20 35.047877 -106.615224 180 5322ft 0kts
11-May-18 15:21 35.047878 -106.615224 180 5322ft 0kts
11-May-18 15:22 35.048156 -106.615282 149 5322ft 2kts
11-May-18 15:23 35.048368 -106.615752 88 5322ft 1kts
11-May-18 15:24 35.048368 -106.615772 89 5322ft 0kts
11-May-18 15:25 35.048368 -106.615772 89 5322ft 0kts
11-May-18 15:26 35.048368 -106.615772 89 5322ft 0kts
11-May-18 15:27 35.048368 -106.615473 89 5322ft 7kts
11-May-18 15:28 35.047534 -106.613081 177 5322ft 13kts
11-May-18 15:29 35.045781 -106.609445 89 5322ft 25kts
11-May-18 15:30 35.045733 -106.601170 90 5329ft 23kts
11-May-18 15:31 35.045833 -106.595105 90 5337ft 18kts
11-May-18 15:32 35.045806 -106.590305 89 5342ft 15kts
11-May-18 15:33 35.045771 -106.585044 89 5347ft 24kts
11-May-18 15:34 35.045721 -106.576791 93 5365ft 12kts
11-May-18 15:35 35.045154 -106.575736 174 5365ft 0kts
11-May-18 15:36 35.044407 -106.575694 179 5365ft 10kts
11-May-18 15:37 35.044075 -106.578370 269 5362ft 46kts
11-May-18 15:38 35.044116 -106.610183 269 5632ft 181kts
11-May-18 15:39 35.053296 -106.665761 283 7570ft 212kts
11-May-18 15:40 35.067962 -106.733639 282 9651ft 242kts
11-May-18 15:41 35.105792 -106.793435 340 11786ft 282kts
11-May-18 15:42 35.172146 -106.833445 345 13866ft 315kts
11-May-18 15:43 35.259391 -106.847611 348 15978ft 349kts
11-May-18 15:44 35.354994 -106.862223 348 18133ft 376kts
11-May-18 15:45 35.457362 -106.877727 348 20281ft 401kts
11-May-18 15:46 35.567584 -106.894479 347 22243ft 427kts
11-May-18 15:47 35.678913 -106.911497 348 24122ft 447kts
11-May-18 15:48 35.784122 -106.927560 348 25828ft 461kts
11-May-18 15:49 35.907026 -106.946327 348 27760ft 470kts
11-May-18 15:50 36.025581 -106.983334 321 29690ft 450kts
11-May-18 15:51 36.099710 -107.084424 303 32866ft 373kts
11-May-18 15:52 36.154954 -107.168940 302 35312ft 310kts
11-May-18 15:53 36.205978 -107.247824 302 35974ft 311kts
11-May-18 15:54 36.257108 -107.327337 302 35971ft 333kts
11-May-18 15:55 36.311668 -107.412320 303 35968ft 356kts
11-May-18 15:56 36.370756 -107.504558 303 35785ft 383kts
11-May-18 15:57 36.432952 -107.601780 303 35857ft 399kts
11-May-18 15:58 36.501021 -107.708507 303 35784ft 415kts
11-May-18 15:59 36.570873 -107.818387 303 35781ft 423kts
11-May-18 16:00 36.641283 -107.929434 303 35779ft 424kts
11-May-18 16:01 36.710805 -108.039404 303 35778ft 424kts
11-May-18 16:02 36.797581 -108.114323 339 35796ft 450kts
11-May-18 16:03 36.906915 -108.146704 341 35778ft 453kts
11-May-18 16:04 37.015216 -108.178233 340 35780ft 449kts
11-May-18 16:05 37.119657 -108.208681 340 35883ft 442kts
11-May-18 16:06 37.223522 -108.239177 340 35869ft 442kts
11-May-18 16:07 37.320290 -108.267603 339 35802ft 427kts
11-May-18 16:08 37.411463 -108.294664 339 35802ft 427kts
11-May-18 16:09 37.504576 -108.322365 339 35801ft 428kts
11-May-18 16:10 37.600960 -108.351067 339 35800ft 428kts
11-May-18 16:11 37.695931 -108.379373 339 35799ft 428kts
11-May-18 16:12 37.792516 -108.408172 339 35799ft 428kts
11-May-18 16:13 37.893342 -108.438240 339 35772ft 428kts
11-May-18 16:14 37.994197 -108.468322 338 35767ft 430kts
11-May-18 16:15 38.090126 -108.496994 339 35775ft 437kts
11-May-18 16:16 38.189927 -108.526779 339 35771ft 437kts
11-May-18 16:17 38.294719 -108.557982 339 35771ft 429kts
11-May-18 16:18 38.403997 -108.590596 339 35770ft 429kts
11-May-18 16:19 38.509778 -108.622529 339 35770ft 429kts
11-May-18 16:20 38.615001 -108.654760 338 35776ft 428kts
11-May-18 16:21 38.705063 -108.719914 301 35664ft 396kts
11-May-18 16:22 38.763509 -108.829775 299 35645ft 395kts
11-May-18 16:23 38.821802 -108.941156 299 35644ft 395kts
11-May-18 16:24 38.878302 -109.049436 299 34777ft 396kts
11-May-18 16:25 38.936566 -109.161462 299 33442ft 401kts
11-May-18 16:26 38.994416 -109.273049 299 31953ft 408kts
11-May-18 16:27 39.053991 -109.388350 299 30439ft 416kts
11-May-18 16:28 39.113734 -109.504370 299 28934ft 422kts
11-May-18 16:29 39.173333 -109.620518 299 27436ft 428kts
11-May-18 16:30 39.224856 -109.721370 298 26187ft 433kts
11-May-18 16:31 39.281644 -109.832984 298 24835ft 438kts
11-May-18 16:32 39.337940 -109.943911 297 23503ft 445kts
11-May-18 16:33 39.401718 -110.070041 297 21991ft 443kts
11-May-18 16:34 39.457680 -110.180640 297 20507ft 398kts
11-May-18 16:35 39.506888 -110.278607 297 19187ft 388kts
11-May-18 16:36 39.555006 -110.374762 297 17850ft 383kts
11-May-18 16:37 39.599812 -110.464516 298 16579ft 375kts
11-May-18 16:38 39.640047 -110.545136 298 15979ft 345kts
11-May-18 16:39 39.682378 -110.630442 298 15987ft 344kts
11-May-18 16:40 39.723556 -110.713674 299 15993ft 336kts
11-May-18 16:41 39.762778 -110.793335 300 15988ft 331kts
11-May-18 16:42 39.802705 -110.874591 302 15989ft 327kts
11-May-18 16:43 39.839902 -110.950449 303 15986ft 329kts
11-May-18 16:44 39.877847 -111.027913 304 15987ft 331kts
11-May-18 16:45 39.918218 -111.110490 303 15985ft 328kts
11-May-18 16:46 39.961119 -111.198475 304 15983ft 328kts
11-May-18 16:47 40.004919 -111.288590 303 16117ft 321kts
11-May-18 16:48 40.040825 -111.362527 301 16119ft 322kts
11-May-18 16:49 40.079498 -111.442440 299 16121ft 327kts
11-May-18 16:50 40.117910 -111.522217 298 16119ft 335kts
11-May-18 16:51 40.152942 -111.605885 291 16118ft 336kts
11-May-18 16:52 40.187217 -111.689451 307 16123ft 343kts
11-May-18 16:53 40.247517 -111.751373 318 15044ft 352kts
11-May-18 16:54 40.306870 -111.808775 318 13789ft 339kts
11-May-18 16:55 40.367486 -111.867672 320 12530ft 326kts
11-May-18 16:56 40.427938 -111.926270 326 11375ft 325kts
11-May-18 16:57 40.490530 -111.944602 355 10044ft 327kts
11-May-18 16:58 40.553406 -111.948624 355 8845ft 323kts
11-May-18 16:59 40.609362 -111.954083 354 7708ft 259kts
11-May-18 17:00 40.655276 -111.959300 354 6306ft 221kts
11-May-18 17:01 40.694855 -111.963893 354 5835ft 174kts
11-May-18 17:02 40.728482 -111.967772 353 5173ft 165kts
11-May-18 17:03 40.758839 -111.971191 353 4593ft 161kts
11-May-18 17:04 40.787308 -111.974632 353 4235ft 136kts
11-May-18 17:05 40.796861 -111.977056 252 4235ft 2kts
11-May-18 17:06 40.796825 -111.977207 251 4235ft 2kts
11-May-18 17:07 40.793470 -111.977491 174 4235ft 41kts
11-May-18 17:08 40.789555 -111.978215 205 4235ft 2kts
11-May-18 17:09 40.789247 -111.978334 189 4235ft 0kts

Navigation Log

Ident Type
Flight plan parsing failed, navigation log unavailable